createdAt,value
2023-02-02T00:00:05.270Z,100076.19
2023-02-02T00:03:08.956Z,100076.72
2023-02-02T00:06:11.760Z,100063.97
2023-02-02T00:09:16.017Z,100090.38
2023-02-02T00:12:18.603Z,100081.72
2023-02-02T00:15:21.050Z,100084.31
2023-02-02T00:18:23.782Z,100080.13
2023-02-02T00:21:26.633Z,100065.34
2023-02-02T00:24:29.477Z,100072.13
2023-02-02T00:27:31.931Z,100043.34
2023-02-02T00:30:34.495Z,100038.56
2023-02-02T00:33:37.084Z,100060.53
2023-02-02T00:36:40.061Z,100056.78
2023-02-02T00:39:43.179Z,100069.00
2023-02-02T00:42:50.368Z,100080.97
2023-02-02T00:45:52.881Z,100074.53
2023-02-02T00:48:55.471Z,100071.00
2023-02-02T00:51:57.938Z,100079.00
2023-02-02T00:55:00.928Z,100062.13
2023-02-02T00:58:05.058Z,100068.53
2023-02-02T01:01:16.979Z,100083.31
2023-02-02T01:04:19.682Z,100087.16
2023-02-02T01:07:22.085Z,100079.56
2023-02-02T01:10:25.583Z,100079.44
2023-02-02T01:13:28.024Z,100094.41
2023-02-02T01:16:31.555Z,100099.53
2023-02-02T01:19:34.029Z,100078.38
2023-02-02T01:22:38.543Z,100096.66
2023-02-02T01:25:40.975Z,100099.16
2023-02-02T01:28:43.831Z,100099.03
2023-02-02T01:31:46.775Z,100116.53
2023-02-02T01:34:49.239Z,100099.47
2023-02-02T01:37:51.776Z,100097.56
2023-02-02T01:40:56.523Z,100102.38
2023-02-02T01:44:04.720Z,100104.66
2023-02-02T01:47:07.175Z,100090.28
2023-02-02T01:50:12.267Z,100071.34
2023-02-02T01:53:15.022Z,100068.94
2023-02-02T01:56:32.078Z,100074.69
2023-02-02T01:59:35.839Z,100060.75
2023-02-02T02:02:39.799Z,100064.28
2023-02-02T02:06:01.323Z,100087.13
2023-02-02T02:09:05.512Z,100054.84
2023-02-02T02:12:16.244Z,100052.25
2023-02-02T02:15:39.291Z,100037.34
2023-02-02T02:19:17.346Z,100023.03
2023-02-02T02:22:40.221Z,100027.22
2023-02-02T02:26:29.787Z,100023.00
2023-02-02T02:29:52.004Z,100065.94
2023-02-02T02:33:24.443Z,100051.78
2023-02-02T02:36:38.745Z,100063.41
2023-02-02T02:39:58.375Z,100044.13
2023-02-02T02:43:09.912Z,100050.84
2023-02-02T02:46:13.816Z,100047.66
2023-02-02T02:49:17.181Z,100040.47
2023-02-02T02:52:19.979Z,100055.22
2023-02-02T02:55:25.643Z,100058.72
2023-02-02T02:58:40.884Z,100056.28
2023-02-02T03:02:00.887Z,100068.22
2023-02-02T03:05:13.241Z,100057.63
2023-02-02T03:08:34.015Z,100047.81
2023-02-02T03:11:37.281Z,100034.25
2023-02-02T03:14:39.800Z,100045.69
2023-02-02T03:17:43.634Z,100065.63
2023-02-02T03:20:46.284Z,100061.59
2023-02-02T03:23:48.967Z,100071.56
2023-02-02T03:26:51.829Z,100083.81
2023-02-02T03:29:54.987Z,100067.22
2023-02-02T03:32:57.585Z,100070.28
2023-02-02T03:36:00.044Z,100053.00
2023-02-02T03:39:02.488Z,100053.94
2023-02-02T03:42:05.502Z,100072.41
2023-02-02T03:45:08.466Z,100061.19
2023-02-02T03:48:10.916Z,100054.47
2023-02-02T03:51:14.903Z,100054.97
2023-02-02T03:54:17.364Z,100052.72
2023-02-02T03:57:19.945Z,100037.81
2023-02-02T04:00:22.667Z,100054.03
2023-02-02T04:03:25.215Z,100045.38
2023-02-02T04:06:27.878Z,100046.66
2023-02-02T04:09:30.288Z,100052.63
2023-02-02T04:12:32.736Z,100066.88
2023-02-02T04:15:35.114Z,100027.13
2023-02-02T04:18:40.142Z,100056.78
2023-02-02T04:21:42.830Z,100056.47
2023-02-02T04:24:45.334Z,100064.47
2023-02-02T04:27:47.740Z,100062.41
2023-02-02T04:30:50.879Z,100073.97
2023-02-02T04:33:53.293Z,100069.97
2023-02-02T04:36:56.236Z,100070.44
2023-02-02T04:39:58.955Z,100084.22
2023-02-02T04:43:01.700Z,100091.13
2023-02-02T04:46:05.061Z,100085.81
2023-02-02T04:49:10.459Z,100086.13
2023-02-02T04:52:12.896Z,100091.88
2023-02-02T04:55:15.544Z,100105.31
2023-02-02T04:58:18.892Z,100109.50
2023-02-02T05:01:22.025Z,100102.53
2023-02-02T05:04:24.432Z,100102.34
2023-02-02T05:07:26.964Z,100107.34
2023-02-02T05:10:29.482Z,100110.72
2023-02-02T05:13:32.376Z,100134.31
2023-02-02T05:16:35.036Z,100119.56
2023-02-02T05:19:37.522Z,100136.88
2023-02-02T05:22:40.169Z,100135.13
2023-02-02T05:25:42.663Z,100143.47
2023-02-02T05:28:45.085Z,100144.75
2023-02-02T05:31:47.563Z,100154.25
2023-02-02T05:34:50.055Z,100152.13
2023-02-02T05:37:52.514Z,100148.78
2023-02-02T05:40:54.914Z,100139.13
2023-02-02T05:44:00.956Z,100149.41
2023-02-02T05:47:03.380Z,100149.28
2023-02-02T05:50:06.430Z,100165.97
2023-02-02T05:53:10.663Z,100166.59
2023-02-02T05:56:13.837Z,100177.53
2023-02-02T05:59:17.620Z,100171.59
2023-02-02T06:02:20.329Z,100171.75
2023-02-02T06:05:23.297Z,100170.28
2023-02-02T06:08:26.042Z,100164.47
2023-02-02T06:11:28.659Z,100162.41
2023-02-02T06:14:31.865Z,100155.19
2023-02-02T06:17:34.358Z,100154.53
2023-02-02T06:20:37.241Z,100155.84
2023-02-02T06:23:45.670Z,100152.31
2023-02-02T06:26:48.154Z,100149.22
2023-02-02T06:29:50.708Z,100147.81
2023-02-02T06:32:53.462Z,100154.03
2023-02-02T06:36:00.131Z,100156.59
2023-02-02T06:39:04.850Z,100151.78
2023-02-02T06:42:20.306Z,100157.09
2023-02-02T06:45:23.644Z,100178.00
2023-02-02T06:48:29.162Z,100170.28
2023-02-02T06:51:32.489Z,100162.09
2023-02-02T06:54:35.021Z,100172.84
2023-02-02T06:57:37.534Z,100177.03
2023-02-02T07:00:39.955Z,100192.44
2023-02-02T07:03:42.883Z,100199.50
2023-02-02T07:06:45.940Z,100218.16
2023-02-02T07:09:48.381Z,100216.19
2023-02-02T07:13:01.058Z,100207.84
2023-02-02T07:16:05.545Z,100226.50
2023-02-02T07:19:08.313Z,100216.22
2023-02-02T07:22:10.901Z,100233.88
2023-02-02T07:25:13.321Z,100227.44
2023-02-02T07:28:15.739Z,100243.50
2023-02-02T07:31:26.557Z,100236.75
2023-02-02T07:34:29.172Z,100267.69
2023-02-02T07:37:31.901Z,100257.47
2023-02-02T07:40:34.485Z,100268.72
2023-02-02T07:43:37.153Z,100270.94
2023-02-02T07:46:40.015Z,100261.16
2023-02-02T07:49:43.700Z,100277.44
2023-02-02T07:52:46.375Z,100283.91
2023-02-02T07:55:48.880Z,100276.78
2023-02-02T07:58:53.324Z,100278.34
2023-02-02T08:01:56.082Z,100283.06
2023-02-02T08:04:58.599Z,100305.47
2023-02-02T08:08:01.085Z,100278.09
2023-02-02T08:11:03.624Z,100290.22
2023-02-02T08:14:06.598Z,100290.59
2023-02-02T08:17:09.331Z,100287.81
2023-02-02T08:20:13.596Z,100299.88
2023-02-02T08:23:16.840Z,100276.38
2023-02-02T08:26:22.819Z,100278.94
2023-02-02T08:29:25.595Z,100272.59
2023-02-02T08:32:28.258Z,100269.38
2023-02-02T08:35:30.745Z,100259.25
2023-02-02T08:38:33.917Z,100251.59
2023-02-02T08:41:37.666Z,100264.53
2023-02-02T08:44:45.605Z,100248.75
2023-02-02T08:48:11.609Z,100281.25
2023-02-02T08:51:17.049Z,100259.34
2023-02-02T08:54:20.584Z,100288.75
2023-02-02T08:57:23.320Z,100285.91
2023-02-02T09:00:26.142Z,100275.13
2023-02-02T09:03:28.728Z,100288.75
2023-02-02T09:06:36.644Z,100286.16
2023-02-02T09:09:41.542Z,100285.88
2023-02-02T09:12:45.733Z,100293.63
2023-02-02T09:15:48.790Z,100289.09
2023-02-02T09:18:51.902Z,100308.94
2023-02-02T09:21:54.388Z,100293.72
2023-02-02T09:24:56.978Z,100294.63
2023-02-02T09:27:59.434Z,100300.38
2023-02-02T09:31:02.557Z,100284.97
2023-02-02T09:34:09.875Z,100284.25
2023-02-02T09:37:12.374Z,100300.81
2023-02-02T09:40:19.559Z,100305.03
2023-02-02T09:43:53.167Z,100305.94
2023-02-02T09:47:01.559Z,100316.25
2023-02-02T09:50:08.963Z,100288.88
2023-02-02T09:53:23.952Z,100311.28
2023-02-02T09:56:26.363Z,100307.28
2023-02-02T09:59:40.479Z,100287.69
2023-02-02T10:02:46.569Z,100303.72
2023-02-02T10:05:55.976Z,100320.09
2023-02-02T10:09:23.528Z,100320.28
2023-02-02T10:12:47.207Z,100321.31
2023-02-02T10:16:03.641Z,100304.72
2023-02-02T10:19:11.608Z,100308.78
2023-02-02T10:22:26.256Z,100317.75
2023-02-02T10:25:29.672Z,100311.44
2023-02-02T10:29:14.117Z,100295.97
2023-02-02T10:32:29.024Z,100289.81
2023-02-02T10:35:41.174Z,100265.22
2023-02-02T10:39:00.775Z,100310.47
2023-02-02T10:42:26.365Z,100292.66
2023-02-02T10:45:28.880Z,100282.28
2023-02-02T10:48:35.881Z,100290.47
2023-02-02T10:51:40.790Z,100282.44
2023-02-02T10:54:55.811Z,100272.81
2023-02-02T10:58:32.314Z,100295.63
2023-02-02T11:01:34.910Z,100294.69
2023-02-02T11:04:56.328Z,100295.00
2023-02-02T11:07:59.405Z,100304.78
2023-02-02T11:11:11.155Z,100300.19
2023-02-02T11:14:18.928Z,100286.28
2023-02-02T11:17:24.260Z,100299.81
2023-02-02T11:20:35.585Z,100306.78
2023-02-02T11:23:38.559Z,100286.28
2023-02-02T11:26:55.760Z,100294.63
2023-02-02T11:30:01.150Z,100282.13
2023-02-02T11:33:28.650Z,100301.31
2023-02-02T11:36:31.252Z,100295.03
2023-02-02T11:39:33.818Z,100285.25
2023-02-02T11:42:36.417Z,100288.81
2023-02-02T11:45:42.841Z,100288.72
2023-02-02T11:49:09.952Z,100298.72
2023-02-02T11:52:23.575Z,100310.13
2023-02-02T11:55:30.380Z,100303.19
2023-02-02T11:58:50.136Z,100305.84
2023-02-02T12:02:20.418Z,100300.66
2023-02-02T12:05:23.711Z,100318.25
2023-02-02T12:08:26.207Z,100304.25
2023-02-02T12:11:37.735Z,100301.91
2023-02-02T12:15:12.613Z,100303.78
2023-02-02T12:18:38.297Z,100303.47
2023-02-02T12:22:11.497Z,100299.97
2023-02-02T12:25:37.425Z,100313.53
2023-02-02T12:28:40.047Z,100296.94
2023-02-02T12:32:18.340Z,100295.31
2023-02-02T12:35:21.693Z,100296.75
2023-02-02T12:38:30.177Z,100284.31
2023-02-02T12:42:00.610Z,100296.22
2023-02-02T12:45:06.066Z,100296.84
2023-02-02T12:48:26.522Z,100295.69
2023-02-02T12:51:38.170Z,100294.81
2023-02-02T12:54:53.634Z,100299.63
2023-02-02T12:58:07.515Z,100303.09
2023-02-02T13:01:23.928Z,100304.78
2023-02-02T13:04:32.853Z,100296.59
2023-02-02T13:07:55.440Z,100294.72
2023-02-02T13:11:06.220Z,100305.84
2023-02-02T13:14:22.174Z,100311.81
2023-02-02T13:17:36.459Z,100290.22
2023-02-02T13:20:46.432Z,100307.00
2023-02-02T13:23:56.515Z,100304.69
2023-02-02T13:27:02.995Z,100295.94
2023-02-02T13:30:22.979Z,100307.19
2023-02-02T13:33:32.309Z,100315.84
2023-02-02T13:36:37.623Z,100296.84
2023-02-02T13:39:46.007Z,100302.66
2023-02-02T13:43:15.629Z,100319.56
2023-02-02T13:47:03.413Z,100321.00
2023-02-02T13:50:14.072Z,100314.66
2023-02-02T13:53:39.713Z,100312.25
2023-02-02T13:56:51.813Z,100309.84
2023-02-02T14:00:05.287Z,100315.03
2023-02-02T14:03:43.000Z,100325.53
2023-02-02T14:07:07.133Z,100316.63
2023-02-02T14:10:24.785Z,100318.88
2023-02-02T14:13:50.087Z,100327.28
2023-02-02T14:16:53.338Z,100327.03
2023-02-02T14:19:58.143Z,100319.81
2023-02-02T14:23:00.623Z,100311.88
2023-02-02T14:26:09.506Z,100325.31
2023-02-02T14:29:29.477Z,100337.88
2023-02-02T14:32:41.117Z,100326.91
2023-02-02T14:35:43.511Z,100332.78
2023-02-02T14:39:01.023Z,100326.72
2023-02-02T14:42:28.219Z,100335.09
2023-02-02T14:45:36.349Z,100345.50
2023-02-02T14:48:44.013Z,100320.28
2023-02-02T14:51:53.106Z,100336.13
2023-02-02T14:54:55.940Z,100354.94
2023-02-02T14:58:04.432Z,100336.22
2023-02-02T15:01:25.840Z,100343.97
2023-02-02T15:04:29.474Z,100343.38
2023-02-02T15:07:32.801Z,100363.44
2023-02-02T15:10:53.538Z,100351.59
2023-02-02T15:14:07.070Z,100344.25
2023-02-02T15:17:17.541Z,100360.25
2023-02-02T15:21:01.528Z,100357.72
2023-02-02T15:24:06.809Z,100353.91
2023-02-02T15:27:17.627Z,100365.94
2023-02-02T15:30:20.955Z,100373.06
2023-02-02T15:33:29.729Z,100369.97
2023-02-02T15:36:35.704Z,100387.56
2023-02-02T15:39:49.192Z,100373.78
2023-02-02T15:42:58.824Z,100377.19
2023-02-02T15:46:05.862Z,100393.63
2023-02-02T15:49:33.293Z,100401.03
2023-02-02T15:52:47.131Z,100409.94
2023-02-02T15:55:50.559Z,100418.03
2023-02-02T15:58:56.357Z,100421.91
2023-02-02T16:02:22.768Z,100417.28
2023-02-02T16:05:37.233Z,100437.56
2023-02-02T16:08:41.357Z,100426.78
2023-02-02T16:11:50.313Z,100446.63
2023-02-02T16:14:55.407Z,100458.19
2023-02-02T16:18:15.350Z,100462.09
2023-02-02T16:21:24.859Z,100438.94
2023-02-02T16:24:31.991Z,100459.66
2023-02-02T16:27:35.111Z,100461.97
2023-02-02T16:30:39.468Z,100463.03
2023-02-02T16:33:44.243Z,100471.78
2023-02-02T16:37:07.139Z,100480.94
2023-02-02T16:40:26.682Z,100492.75
2023-02-02T16:43:30.390Z,100493.72
2023-02-02T16:46:49.697Z,100499.66
2023-02-02T16:50:28.754Z,100506.22
2023-02-02T16:53:31.533Z,100492.25
2023-02-02T16:56:39.874Z,100516.56
2023-02-02T16:59:49.043Z,100513.34
2023-02-02T17:02:58.353Z,100517.50
2023-02-02T17:06:02.360Z,100523.16
2023-02-02T17:09:15.917Z,100525.22
2023-02-02T17:12:34.196Z,100544.59
2023-02-02T17:15:37.808Z,100529.44
2023-02-02T17:18:40.716Z,100526.09
2023-02-02T17:21:43.725Z,100550.72
2023-02-02T17:24:48.912Z,100531.09
2023-02-02T17:27:51.811Z,100551.38
2023-02-02T17:31:00.624Z,100547.19
2023-02-02T17:34:04.423Z,100549.94
2023-02-02T17:37:07.112Z,100545.75
2023-02-02T17:40:17.671Z,100548.00
2023-02-02T17:43:20.358Z,100558.16
2023-02-02T17:46:22.909Z,100563.44
2023-02-02T17:49:25.446Z,100572.63
2023-02-02T17:52:28.276Z,100583.84
2023-02-02T17:55:36.689Z,100573.53
2023-02-02T17:58:40.402Z,100597.38
2023-02-02T18:01:42.983Z,100572.53
2023-02-02T18:04:45.964Z,100585.75
2023-02-02T18:07:48.683Z,100578.00
2023-02-02T18:10:51.297Z,100592.50
2023-02-02T18:13:53.936Z,100601.63
2023-02-02T18:16:56.445Z,100605.00
2023-02-02T18:19:59.133Z,100592.34
2023-02-02T18:23:02.047Z,100607.03
2023-02-02T18:26:17.586Z,100617.88
2023-02-02T18:29:20.465Z,100611.44
2023-02-02T18:32:23.162Z,100611.41
2023-02-02T18:35:26.044Z,100621.66
2023-02-02T18:38:29.220Z,100627.69
2023-02-02T18:41:32.008Z,100615.19
2023-02-02T18:44:36.403Z,100600.69
2023-02-02T18:47:41.346Z,100625.47
2023-02-02T18:50:44.407Z,100613.28
2023-02-02T18:53:48.830Z,100615.50
2023-02-02T18:56:51.523Z,100644.47
2023-02-02T18:59:54.246Z,100623.66
2023-02-02T19:02:56.951Z,100648.28
2023-02-02T19:06:18.207Z,100635.06
2023-02-02T19:09:22.261Z,100624.41
2023-02-02T19:12:28.427Z,100621.88
2023-02-02T19:15:34.802Z,100630.19
2023-02-02T19:18:37.871Z,100624.13
2023-02-02T19:21:42.204Z,100624.03
2023-02-02T19:24:45.758Z,100639.28
2023-02-02T19:27:48.327Z,100632.22
2023-02-02T19:30:56.879Z,100620.00
2023-02-02T19:34:01.390Z,100638.34
2023-02-02T19:37:25.945Z,100650.25
2023-02-02T19:40:29.266Z,100639.47
2023-02-02T19:43:33.167Z,100632.97
2023-02-02T19:46:41.689Z,100619.75
2023-02-02T19:49:44.391Z,100647.72
2023-02-02T19:52:48.938Z,100682.19
2023-02-02T19:55:52.699Z,100679.78
2023-02-02T19:58:55.879Z,100658.50
2023-02-02T20:02:06.478Z,100665.44
2023-02-02T20:05:12.160Z,100692.69
2023-02-02T20:08:39.660Z,100701.84
2023-02-02T20:11:45.330Z,100694.38
2023-02-02T20:14:48.483Z,100706.41
2023-02-02T20:17:54.326Z,100697.50
2023-02-02T20:20:57.391Z,100708.06
2023-02-02T20:24:00.112Z,100711.72
2023-02-02T20:27:14.641Z,100714.03
2023-02-02T20:30:25.144Z,100718.28
2023-02-02T20:33:28.256Z,100728.69
2023-02-02T20:36:37.656Z,100724.41
2023-02-02T20:39:50.491Z,100731.03
2023-02-02T20:42:53.411Z,100744.19
2023-02-02T20:45:56.182Z,100752.13
2023-02-02T20:48:59.606Z,100746.00
2023-02-02T20:52:08.046Z,100756.50
2023-02-02T20:55:11.693Z,100749.69
2023-02-02T20:58:14.482Z,100751.66
2023-02-02T21:01:19.104Z,100756.28
2023-02-02T21:04:22.449Z,100764.88
2023-02-02T21:07:28.118Z,100782.19
2023-02-02T21:10:30.651Z,100784.44
2023-02-02T21:13:33.167Z,100791.28
2023-02-02T21:16:36.321Z,100801.16
2023-02-02T21:19:39.621Z,100793.59
2023-02-02T21:22:42.475Z,100803.91
2023-02-02T21:25:45.071Z,100793.13
2023-02-02T21:28:47.671Z,100793.03
2023-02-02T21:31:50.183Z,100782.84
2023-02-02T21:34:52.959Z,100786.63
2023-02-02T21:37:57.584Z,100808.56
2023-02-02T21:41:00.638Z,100798.50
2023-02-02T21:44:12.194Z,100805.06
2023-02-02T21:47:28.642Z,100823.91
2023-02-02T21:50:37.752Z,100821.09
2023-02-02T21:53:40.224Z,100819.91
2023-02-02T21:56:42.757Z,100843.16
2023-02-02T21:59:48.887Z,100833.38
2023-02-02T22:02:53.488Z,100838.81
2023-02-02T22:06:13.796Z,100852.03
2023-02-02T22:09:22.497Z,100838.91
2023-02-02T22:12:25.597Z,100840.88
2023-02-02T22:15:33.743Z,100848.16
2023-02-02T22:18:36.435Z,100842.47
2023-02-02T22:21:38.931Z,100837.41
2023-02-02T22:24:58.028Z,100844.53
2023-02-02T22:28:13.541Z,100864.56
2023-02-02T22:31:16.565Z,100857.56
2023-02-02T22:34:19.111Z,100873.84
2023-02-02T22:37:21.852Z,100877.66
2023-02-02T22:40:24.844Z,100875.53
2023-02-02T22:43:27.623Z,100872.56
2023-02-02T22:46:30.146Z,100884.47
2023-02-02T22:49:32.990Z,100892.16
2023-02-02T22:52:35.500Z,100895.00
2023-02-02T22:55:37.954Z,100893.09
2023-02-02T22:58:40.572Z,100894.59
2023-02-02T23:01:43.008Z,100898.94
2023-02-02T23:04:45.447Z,100890.84
2023-02-02T23:07:49.128Z,100903.69
2023-02-02T23:10:51.549Z,100890.88
2023-02-02T23:13:53.994Z,100901.00
2023-02-02T23:16:56.475Z,100911.56
2023-02-02T23:19:58.953Z,100895.22
2023-02-02T23:23:01.623Z,100900.03
2023-02-02T23:26:04.101Z,100922.47
2023-02-02T23:29:07.058Z,100932.22
2023-02-02T23:32:09.577Z,100935.97
2023-02-02T23:35:11.989Z,100914.50
2023-02-02T23:38:14.547Z,100920.59
2023-02-02T23:41:17.362Z,100928.59
2023-02-02T23:44:19.872Z,100958.28
2023-02-02T23:47:22.504Z,100953.28
2023-02-02T23:50:25.366Z,100952.06
2023-02-02T23:53:28.343Z,100950.47
2023-02-02T23:56:31.016Z,100980.69
2023-02-02T23:59:33.444Z,100973.28
